Time,TemperatureF,DewpointF,PressureIn,WindDirection,WindDirectionDegrees,WindSpeedMPH,WindSpeedGustMPH,Humidity,HourlyPrecipIn,Conditions,Clouds,dailyrainin,SoftwareType,DateUTC
2013-08-05 00:02:00,63.0,59.7,29.88,NE,34,0.0,1.0,89,0.00,,---,0.00,VWS V13.00,2013-08-05 06:02:00,
2013-08-05 00:07:00,63.0,59.7,29.87,NE,36,0.0,0.0,89,0.00,,---,0.00,VWS V13.00,2013-08-05 06:07:00,
2013-08-05 00:12:00,63.1,59.8,29.86,NE,36,0.0,0.0,89,0.00,,---,0.00,VWS V13.00,2013-08-05 06:12:00,
2013-08-05 00:17:00,63.1,59.8,29.85,NE,36,0.0,0.0,89,0.00,,---,0.00,VWS V13.00,2013-08-05 06:17:00,
2013-08-05 00:22:00,63.2,59.9,29.87,NE,36,2.0,3.0,89,0.00,,---,0.00,VWS V13.00,2013-08-05 06:22:00,
2013-08-05 00:27:00,63.8,60.8,29.89,WSW,242,2.0,7.0,90,0.00,,---,0.00,VWS V13.00,2013-08-05 06:27:00,
2013-08-05 00:32:00,64.3,61.6,29.90,SSW,205,3.0,7.0,91,0.00,,---,0.00,VWS V13.00,2013-08-05 06:32:00,
2013-08-05 00:37:00,62.5,57.6,29.92,NNW,341,0.0,7.0,84,0.00,,---,0.00,VWS V13.00,2013-08-05 06:37:00,
2013-08-05 00:42:00,61.2,57.3,29.92,NNW,343,0.0,7.0,87,0.00,,---,0.00,VWS V13.00,2013-08-05 06:42:00,
2013-08-05 00:47:00,61.8,58.8,29.90,ESE,121,0.0,7.0,90,0.00,,---,0.00,VWS V13.00,2013-08-05 06:47:00,
2013-08-05 00:52:00,61.7,58.7,29.90,ESE,121,0.0,3.0,90,0.00,,---,0.00,VWS V13.00,2013-08-05 06:52:00,
2013-08-05 00:57:00,61.1,57.8,29.89,ESE,121,0.0,3.0,89,0.00,,---,0.00,VWS V13.00,2013-08-05 06:57:00,
2013-08-05 01:02:00,60.3,57.0,29.84,NE,55,2.0,4.0,89,0.00,,---,0.00,VWS V13.00,2013-08-05 07:02:00,
2013-08-05 01:07:00,59.6,56.4,29.83,ENE,57,0.0,3.0,89,0.00,,---,0.00,VWS V13.00,2013-08-05 07:07:00,
2013-08-05 01:12:00,59.2,56.0,29.84,West,277,0.0,4.0,89,0.00,,---,0.00,VWS V13.00,2013-08-05 07:12:00,
2013-08-05 01:17:00,59.0,56.1,29.85,West,276,2.0,4.0,90,0.00,,---,0.00,VWS V13.00,2013-08-05 07:17:00,
2013-08-05 01:22:00,59.0,56.1,29.84,West,277,1.0,3.0,90,0.00,,---,0.00,VWS V13.00,2013-08-05 07:22:00,
2013-08-05 01:27:00,59.0,56.1,29.84,West,276,1.0,3.0,90,0.00,,---,0.00,VWS V13.00,2013-08-05 07:27:00,
2013-08-05 01:32:00,59.0,56.1,29.85,West,276,0.0,3.0,90,0.00,,---,0.00,VWS V13.00,2013-08-05 07:32:00,
2013-08-05 01:37:00,58.7,55.8,29.84,West,277,0.0,1.0,90,0.00,,---,0.00,VWS V13.00,2013-08-05 07:37:00,
2013-08-05 01:42:00,58.5,55.6,29.84,West,277,0.0,1.0,90,0.00,,---,0.00,VWS V13.00,2013-08-05 07:42:00,
2013-08-05 01:47:00,58.4,55.5,29.85,West,277,0.0,1.0,90,0.00,,---,0.00,VWS V13.00,2013-08-05 07:47:00,
2013-08-05 01:52:00,58.2,55.3,29.85,West,276,0.0,0.0,90,0.00,,---,0.00,VWS V13.00,2013-08-05 07:52:00,
2013-08-05 01:57:00,58.2,55.6,29.85,West,277,0.0,0.0,91,0.00,,---,0.00,VWS V13.00,2013-08-05 07:57:00,
2013-08-05 02:02:00,58.3,55.7,29.86,West,277,0.0,0.0,91,0.00,,---,0.00,VWS V13.00,2013-08-05 08:02:00,
2013-08-05 02:07:00,58.2,55.6,29.87,West,278,0.0,0.0,91,0.00,,---,0.00,VWS V13.00,2013-08-05 08:07:00,
2013-08-05 02:16:00,58.1,55.8,29.88,West,262,0.0,0.0,92,0.00,,---,0.00,VWS V13.00,2013-08-05 08:16:00,
2013-08-05 02:21:00,58.1,55.8,29.88,West,277,0.0,3.0,92,0.00,,---,0.00,VWS V13.00,2013-08-05 08:21:00,
2013-08-05 02:26:00,58.2,55.6,29.89,West,277,0.0,3.0,91,0.00,,---,0.00,VWS V13.00,2013-08-05 08:26:00,
2013-08-05 02:31:00,58.2,55.6,29.90,WSW,252,0.0,3.0,91,0.00,,---,0.00,VWS V13.00,2013-08-05 08:31:00,
2013-08-05 02:36:00,58.3,55.7,29.90,WSW,252,0.0,0.0,91,0.00,,---,0.00,VWS V13.00,2013-08-05 08:36:00,
2013-08-05 02:41:00,58.4,55.8,29.89,WSW,252,0.0,0.0,91,0.00,,---,0.00,VWS V13.00,2013-08-05 08:41:00,
2013-08-05 02:46:00,58.4,55.8,29.89,WSW,252,0.0,0.0,91,0.00,,---,0.00,VWS V13.00,2013-08-05 08:46:00,
2013-08-05 03:07:00,59.8,54.3,29.88,West,260,1.0,10.0,82,0.00,,---,0.00,VWS V13.00,2013-08-05 09:07:00,
2013-08-05 03:12:00,60.6,53.4,29.88,West,261,0.0,10.0,77,0.00,,---,0.00,VWS V13.00,2013-08-05 09:12:00,
2013-08-05 03:17:00,60.7,54.5,29.88,West,261,0.0,0.0,80,0.00,,---,0.00,VWS V13.00,2013-08-05 09:17:00,
2013-08-05 03:30:00,58.8,54.3,29.84,ENE,69,4.0,5.0,85,0.00,,---,0.00,VWS V13.00,2013-08-05 09:30:00,
2013-08-05 08:02:00,60.0,57.4,29.92,SSW,210,0.0,1.0,91,0.00,,---,0.00,VWS V13.00,2013-08-05 14:02:00,
2013-08-05 08:07:00,60.7,57.8,29.93,SSW,210,0.0,1.0,90,0.00,,---,0.00,VWS V13.00,2013-08-05 14:07:00,
2013-08-05 08:13:00,61.5,57.9,29.93,SSW,210,0.0,1.0,88,0.00,,---,0.00,VWS V13.00,2013-08-05 14:13:00,
2013-08-05 08:18:00,62.2,58.3,29.92,SSW,210,0.0,0.0,87,0.00,,---,0.00,VWS V13.00,2013-08-05 14:18:00,
2013-08-05 08:39:00,65.1,60.2,29.91,SSW,210,0.0,0.0,84,0.00,,---,0.00,VWS V13.00,2013-08-05 14:39:00,
2013-08-05 08:44:00,65.7,60.4,29.90,SSW,210,0.0,0.0,83,0.00,,---,0.00,VWS V13.00,2013-08-05 14:44:00,
2013-08-05 08:49:00,66.0,60.3,29.90,SSW,210,0.0,0.0,82,0.00,,---,0.00,VWS V13.00,2013-08-05 14:49:00,
2013-08-05 08:54:00,66.5,60.8,29.90,SSW,210,0.0,0.0,82,0.00,,---,0.00,VWS V13.00,2013-08-05 14:54:00,
2013-08-05 08:59:00,66.8,60.8,29.90,SSW,210,0.0,1.0,81,0.00,,---,0.00,VWS V13.00,2013-08-05 14:59:00,
2013-08-05 09:04:00,67.1,60.7,29.92,SSW,210,0.0,0.0,80,0.00,,---,0.00,VWS V13.00,2013-08-05 15:04:00,
2013-08-05 09:21:00,67.5,60.8,29.92,SSW,210,0.0,1.0,79,0.00,,---,0.00,VWS V13.00,2013-08-05 15:21:00,
2013-08-05 09:26:00,67.6,60.5,29.92,SSW,210,0.0,2.0,78,0.00,,---,0.00,VWS V13.00,2013-08-05 15:26:00,
2013-08-05 09:32:00,67.6,60.9,29.92,SSW,210,0.0,2.0,79,0.00,,---,0.00,VWS V13.00,2013-08-05 15:32:00,
2013-08-05 09:37:00,67.9,60.8,29.92,SSW,210,0.0,3.0,78,0.00,,---,0.00,VWS V13.00,2013-08-05 15:37:00,
2013-08-05 09:43:00,68.0,60.5,29.92,SSW,210,0.0,4.0,77,0.00,,---,0.00,VWS V13.00,2013-08-05 15:43:00,
2013-08-05 09:48:00,68.1,60.3,29.92,SSW,210,0.0,0.0,76,0.00,,---,0.00,VWS V13.00,2013-08-05 15:48:00,
2013-08-05 09:53:00,68.6,60.4,29.91,SSW,205,0.0,3.0,75,0.00,,---,0.00,VWS V13.00,2013-08-05 15:53:00,
2013-08-05 09:58:00,69.3,61.4,29.90,SSW,205,0.0,3.0,76,0.00,,---,0.00,VWS V13.00,2013-08-05 15:58:00,
2013-08-05 10:03:00,69.6,60.2,29.92,East,80,1.0,1.0,72,0.00,,---,0.00,VWS V13.00,2013-08-05 16:03:00,
2013-08-05 10:08:00,69.8,61.5,29.91,East,80,1.0,1.0,75,0.00,,---,0.00,VWS V13.00,2013-08-05 16:08:00,
2013-08-05 10:14:00,70.0,61.0,29.91,East,80,0.0,2.0,73,0.00,,---,0.00,VWS V13.00,2013-08-05 16:14:00,
2013-08-05 10:19:00,70.3,60.5,29.91,East,80,0.0,1.0,71,0.00,,---,0.00,VWS V13.00,2013-08-05 16:19:00,
2013-08-05 10:24:00,70.7,61.6,29.91,East,80,0.0,2.0,73,0.00,,---,0.00,VWS V13.00,2013-08-05 16:24:00,
2013-08-05 10:29:00,71.1,60.4,29.91,East,81,3.0,5.0,69,0.00,,---,0.00,VWS V13.00,2013-08-05 16:29:00,
2013-08-05 10:34:00,71.4,61.5,29.91,East,80,0.0,3.0,71,0.00,,---,0.00,VWS V13.00,2013-08-05 16:34:00,
2013-08-05 10:39:00,71.9,61.2,29.90,East,81,0.0,3.0,69,0.00,,---,0.00,VWS V13.00,2013-08-05 16:39:00,
2013-08-05 10:45:00,72.4,62.5,29.90,East,80,0.0,3.0,71,0.00,,---,0.00,VWS V13.00,2013-08-05 16:45:00,
2013-08-05 10:50:00,72.6,61.4,29.89,East,82,1.0,2.0,68,0.00,,---,0.00,VWS V13.00,2013-08-05 16:50:00,
2013-08-05 10:55:00,72.8,61.2,29.90,East,81,0.0,3.0,67,0.00,,---,0.00,VWS V13.00,2013-08-05 16:55:00,
2013-08-05 11:00:00,73.0,61.0,29.90,East,80,0.0,3.0,66,0.00,,---,0.00,VWS V13.00,2013-08-05 17:00:00,
2013-08-05 11:05:00,73.4,61.8,29.90,East,80,0.0,1.0,67,0.00,,---,0.00,VWS V13.00,2013-08-05 17:05:00,
2013-08-05 11:10:00,74.1,62.9,29.90,East,81,1.0,3.0,68,0.00,,---,0.00,VWS V13.00,2013-08-05 17:10:00,
2013-08-05 11:15:00,74.1,62.5,29.89,SSW,194,0.0,4.0,67,0.00,,---,0.00,VWS V13.00,2013-08-05 17:15:00,
2013-08-05 11:20:00,74.7,63.0,29.89,ENE,76,1.0,3.0,67,0.00,,---,0.00,VWS V13.00,2013-08-05 17:20:00,
2013-08-05 11:25:00,74.9,61.9,29.88,East,86,0.0,3.0,64,0.00,,---,0.00,VWS V13.00,2013-08-05 17:25:00,
2013-08-05 11:30:00,75.0,63.7,29.88,North,355,3.0,3.0,68,0.00,,---,0.00,VWS V13.00,2013-08-05 17:30:00,
2013-08-05 11:35:00,75.0,62.5,29.88,NNE,14,0.0,4.0,65,0.00,,---,0.00,VWS V13.00,2013-08-05 17:35:00,
2013-08-05 11:40:00,75.4,62.4,29.88,NNE,31,1.0,4.0,64,0.00,,---,0.00,VWS V13.00,2013-08-05 17:40:00,
2013-08-05 11:45:00,76.1,63.9,29.88,NNE,22,2.0,4.0,66,0.00,,---,0.00,VWS V13.00,2013-08-05 17:45:00,
2013-08-05 11:50:00,75.9,62.9,29.89,NNE,22,0.0,4.0,64,0.00,,---,0.00,VWS V13.00,2013-08-05 17:50:00,
2013-08-05 11:55:00,75.3,64.0,29.88,NNE,21,0.0,4.0,68,0.00,,---,0.00,VWS V13.00,2013-08-05 17:55:00,
2013-08-05 12:00:00,75.6,63.0,29.88,North,355,1.0,4.0,65,0.00,,---,0.00,VWS V13.00,2013-08-05 18:00:00,
2013-08-05 12:53:00,77.3,63.3,29.87,ESE,117,5.0,5.0,62,0.00,,---,0.00,VWS V13.00,2013-08-05 18:53:00,
2013-08-05 12:59:00,76.4,63.3,29.88,NE,40,0.0,5.0,64,0.00,,---,0.00,VWS V13.00,2013-08-05 18:59:00,
2013-08-05 13:04:00,76.3,64.6,29.88,NNE,22,2.0,4.0,67,0.00,,---,0.00,VWS V13.00,2013-08-05 19:04:00,
2013-08-05 13:09:00,77.5,64.4,29.88,NE,37,2.0,4.0,64,0.00,,---,0.00,VWS V13.00,2013-08-05 19:09:00,
2013-08-05 13:14:00,78.3,64.7,29.86,SE,144,1.0,6.0,63,0.00,,---,0.00,VWS V13.00,2013-08-05 19:14:00,
2013-08-05 13:20:00,78.7,64.6,29.85,NNE,19,3.0,5.0,62,0.00,,---,0.00,VWS V13.00,2013-08-05 19:20:00,
2013-08-05 13:25:00,79.1,65.9,29.85,NE,43,0.0,5.0,64,0.00,,---,0.00,VWS V13.00,2013-08-05 19:25:00,
2013-08-05 13:30:00,79.2,65.5,29.85,NNE,30,0.0,5.0,63,0.00,,---,0.00,VWS V13.00,2013-08-05 19:30:00,
2013-08-05 13:35:00,79.3,65.6,29.86,NNE,22,5.0,6.0,63,0.00,,---,0.00,VWS V13.00,2013-08-05 19:35:00,
2013-08-05 13:40:00,79.8,64.7,29.84,North,360,0.0,6.0,60,0.00,,---,0.00,VWS V13.00,2013-08-05 19:40:00,
2013-08-05 13:45:00,79.7,65.1,29.84,North,349,3.0,6.0,61,0.00,,---,0.00,VWS V13.00,2013-08-05 19:45:00,
2013-08-05 13:50:00,79.3,64.2,29.86,ENE,63,3.0,5.0,60,0.00,,---,0.00,VWS V13.00,2013-08-05 19:50:00,
2013-08-05 13:55:00,79.3,63.7,29.85,NE,40,0.0,5.0,59,0.00,,---,0.00,VWS V13.00,2013-08-05 19:55:00,
2013-08-05 14:01:00,79.1,65.0,29.84,North,355,1.0,5.0,62,0.00,,---,0.00,VWS V13.00,2013-08-05 20:01:00,
2013-08-05 14:06:00,79.4,64.8,29.83,NNE,17,1.0,4.0,61,0.00,,---,0.00,VWS V13.00,2013-08-05 20:06:00,
2013-08-05 14:11:00,79.9,64.3,29.83,NNE,17,5.0,6.0,59,0.00,,---,0.00,VWS V13.00,2013-08-05 20:11:00,
2013-08-05 14:17:00,79.7,64.6,29.82,NNE,25,1.0,6.0,60,0.00,,---,0.00,VWS V13.00,2013-08-05 20:17:00,
2013-08-05 14:22:00,80.0,64.4,29.83,NNE,24,1.0,5.0,59,0.00,,---,0.00,VWS V13.00,2013-08-05 20:22:00,
2013-08-05 14:27:00,80.2,65.1,29.82,NE,46,1.0,7.0,60,0.00,,---,0.00,VWS V13.00,2013-08-05 20:27:00,
2013-08-05 14:33:00,78.7,64.6,29.82,North,355,0.0,0.0,62,0.00,,---,0.00,VWS V13.00,2013-08-05 20:33:00,
2013-08-05 14:38:00,78.7,64.6,29.82,NE,44,0.0,2.0,62,0.00,,---,0.00,VWS V13.00,2013-08-05 20:38:00,
2013-08-05 14:44:00,79.2,65.1,29.82,NNE,33,3.0,5.0,62,0.00,,---,0.00,VWS V13.00,2013-08-05 20:44:00,
2013-08-05 14:49:00,79.0,63.5,29.83,SE,131,0.0,5.0,59,0.00,,---,0.00,VWS V13.00,2013-08-05 20:49:00,
2013-08-05 14:54:00,79.7,64.6,29.82,North,355,1.0,5.0,60,0.00,,---,0.00,VWS V13.00,2013-08-05 20:54:00,
2013-08-05 14:59:00,80.4,64.8,29.81,NE,35,1.0,5.0,59,0.00,,---,0.00,VWS V13.00,2013-08-05 20:59:00,
2013-08-05 15:04:00,80.9,65.2,29.81,NE,38,0.0,5.0,59,0.00,,---,0.00,VWS V13.00,2013-08-05 21:04:00,
2013-08-05 15:09:00,80.3,64.2,29.82,NE,35,0.0,5.0,58,0.00,,---,0.00,VWS V13.00,2013-08-05 21:09:00,
2013-08-05 15:14:00,79.4,63.8,29.82,NE,35,0.0,5.0,59,0.00,,---,0.00,VWS V13.00,2013-08-05 21:14:00,
2013-08-05 15:20:00,79.1,65.0,29.81,NNE,17,0.0,3.0,62,0.00,,---,0.00,VWS V13.00,2013-08-05 21:20:00,
2013-08-05 15:25:00,79.7,65.1,29.81,NNE,28,1.0,5.0,61,0.00,,---,0.00,VWS V13.00,2013-08-05 21:25:00,
2013-08-05 15:30:00,79.8,64.2,29.81,SSE,147,0.0,5.0,59,0.00,,---,0.00,VWS V13.00,2013-08-05 21:30:00,
2013-08-05 15:35:00,79.9,64.3,29.81,NNE,17,2.0,3.0,59,0.00,,---,0.00,VWS V13.00,2013-08-05 21:35:00,
2013-08-05 15:40:00,80.5,64.9,29.80,NE,45,0.0,3.0,59,0.00,,---,0.00,VWS V13.00,2013-08-05 21:40:00,
2013-08-05 15:45:00,80.2,64.1,29.81,ENE,62,1.0,3.0,58,0.00,,---,0.00,VWS V13.00,2013-08-05 21:45:00,
2013-08-05 15:50:00,80.5,64.4,29.80,ENE,59,0.0,3.0,58,0.00,,---,0.00,VWS V13.00,2013-08-05 21:50:00,
2013-08-05 15:56:00,80.9,64.2,29.79,NNE,22,0.0,5.0,57,0.00,,---,0.00,VWS V13.00,2013-08-05 21:56:00,
2013-08-05 16:02:00,81.2,64.5,29.79,NE,48,1.0,5.0,57,0.00,,---,0.00,VWS V13.00,2013-08-05 22:02:00,
2013-08-05 16:07:00,81.3,64.6,29.80,NW,306,0.0,3.0,57,0.00,,---,0.00,VWS V13.00,2013-08-05 22:07:00,
2013-08-05 16:12:00,80.9,64.8,29.80,North,11,0.0,10.0,58,0.00,,---,0.00,VWS V13.00,2013-08-05 22:12:00,
2013-08-05 16:17:00,80.9,63.2,29.81,South,178,2.0,10.0,55,0.00,,---,0.00,VWS V13.00,2013-08-05 22:17:00,
2013-08-05 16:22:00,81.0,64.3,29.80,NE,39,0.0,5.0,57,0.00,,---,0.00,VWS V13.00,2013-08-05 22:22:00,
2013-08-05 16:27:00,81.0,63.3,29.81,SE,142,1.0,5.0,55,0.00,,---,0.00,VWS V13.00,2013-08-05 22:27:00,
2013-08-05 16:32:00,80.7,63.6,29.80,NNW,332,3.0,5.0,56,0.00,,---,0.00,VWS V13.00,2013-08-05 22:32:00,
2013-08-05 16:37:00,79.6,62.5,29.80,West,275,0.0,3.0,56,0.00,,---,0.00,VWS V13.00,2013-08-05 22:37:00,
2013-08-05 16:42:00,79.3,63.7,29.81,North,11,0.0,3.0,59,0.00,,---,0.00,VWS V13.00,2013-08-05 22:42:00,
2013-08-05 16:47:00,79.7,63.6,29.81,North,11,1.0,1.0,58,0.00,,---,0.00,VWS V13.00,2013-08-05 22:47:00,
2013-08-05 16:52:00,79.7,63.6,29.81,SE,128,0.0,7.0,58,0.00,,---,0.00,VWS V13.00,2013-08-05 22:52:00,
2013-08-05 16:57:00,79.2,63.7,29.82,NE,51,0.0,7.0,59,0.00,,---,0.00,VWS V13.00,2013-08-05 22:57:00,
2013-08-05 17:02:00,78.6,63.6,29.82,NNW,328,2.0,3.0,60,0.00,,---,0.00,VWS V13.00,2013-08-05 23:02:00,
2013-08-05 17:07:00,77.5,63.0,29.83,NNE,19,0.0,3.0,61,0.00,,---,0.00,VWS V13.00,2013-08-05 23:07:00,
2013-08-05 17:12:00,77.1,63.5,29.83,NNE,20,0.0,3.0,63,0.00,,---,0.00,VWS V13.00,2013-08-05 23:12:00,
2013-08-05 17:17:00,76.6,63.1,29.83,NNE,20,0.0,0.0,63,0.00,,---,0.00,VWS V13.00,2013-08-05 23:17:00,
2013-08-05 17:23:00,76.2,62.7,29.82,NNE,19,0.0,1.0,63,0.00,,---,0.00,VWS V13.00,2013-08-05 23:23:00,
2013-08-05 17:28:00,75.7,62.7,29.82,NNE,19,0.0,1.0,64,0.00,,---,0.00,VWS V13.00,2013-08-05 23:28:00,
2013-08-05 17:33:00,75.1,63.8,29.83,NNW,333,1.0,2.0,68,0.00,,---,0.00,VWS V13.00,2013-08-05 23:33:00,
2013-08-05 17:38:00,74.6,62.9,29.83,NNW,340,0.0,2.0,67,0.00,,---,0.00,VWS V13.00,2013-08-05 23:38:00,
2013-08-05 17:43:00,74.2,61.7,29.81,ENE,65,4.0,6.0,65,0.00,,---,0.00,VWS V13.00,2013-08-05 23:43:00,
2013-08-05 17:48:00,73.8,61.7,29.81,SSE,158,0.0,3.0,66,0.00,,---,0.00,VWS V13.00,2013-08-05 23:48:00,
2013-08-05 17:53:00,73.7,61.7,29.83,West,265,1.0,6.0,66,0.00,,---,0.00,VWS V13.00,2013-08-05 23:53:00,
2013-08-05 17:58:00,73.6,62.0,29.84,West,281,0.0,6.0,67,0.00,,---,0.00,VWS V13.00,2013-08-05 23:58:00,
2013-08-05 18:04:00,73.4,62.2,29.85,WNW,282,0.0,1.0,68,0.00,,---,0.00,VWS V13.00,2013-08-06 00:04:00,
2013-08-05 18:09:00,73.1,62.3,29.88,SE,138,4.0,4.0,69,0.00,,---,0.00,VWS V13.00,2013-08-06 00:09:00,
2013-08-05 18:14:00,73.0,54.9,29.90,West,279,3.0,16.0,53,0.00,,---,0.00,VWS V13.00,2013-08-06 00:14:00,
2013-08-05 18:19:00,69.3,54.4,29.93,South,169,0.0,5.0,59,0.00,,---,0.00,VWS V13.00,2013-08-06 00:19:00,
2013-08-05 18:24:00,66.4,57.1,29.91,SSE,165,2.0,5.0,72,0.00,,---,0.00,VWS V13.00,2013-08-06 00:24:00,
2013-08-05 18:29:00,63.8,57.9,29.90,West,264,0.0,5.0,81,0.00,,---,0.00,VWS V13.00,2013-08-06 00:29:00,
2013-08-05 18:34:00,62.8,57.9,29.90,SE,136,5.0,6.0,84,0.00,,---,0.00,VWS V13.00,2013-08-06 00:34:00,
2013-08-05 18:39:00,62.6,56.3,29.89,SE,136,0.0,6.0,80,0.00,,---,0.00,VWS V13.00,2013-08-06 00:39:00,
2013-08-05 18:44:00,62.7,57.1,29.87,SE,136,0.0,6.0,82,0.00,,---,0.00,VWS V13.00,2013-08-06 00:44:00,
2013-08-05 18:49:00,62.6,55.3,29.87,SSE,148,1.0,6.0,77,0.00,,---,0.00,VWS V13.00,2013-08-06 00:49:00,
2013-08-05 18:54:00,63.2,57.3,29.85,NNW,337,0.0,6.0,81,0.00,,---,0.00,VWS V13.00,2013-08-06 00:54:00,
2013-08-05 18:59:00,63.1,57.2,29.84,NNW,337,0.0,6.0,81,0.00,,---,0.00,VWS V13.00,2013-08-06 00:59:00,
2013-08-05 19:05:00,63.3,55.6,29.83,ESE,123,0.0,4.0,76,0.00,,---,0.00,VWS V13.00,2013-08-06 01:05:00,
2013-08-05 19:10:00,64.4,54.4,29.83,SE,134,0.0,10.0,70,0.00,,---,0.00,VWS V13.00,2013-08-06 01:10:00,
2013-08-05 20:34:00,60.8,55.6,29.83,ESE,102,0.0,1.0,83,0.00,,---,0.00,VWS V13.00,2013-08-06 02:34:00,
2013-08-05 20:39:00,60.4,55.2,29.83,ESE,102,0.0,1.0,83,0.00,,---,0.00,VWS V13.00,2013-08-06 02:39:00,
2013-08-05 20:45:00,59.9,55.4,29.83,ESE,102,0.0,1.0,85,0.00,,---,0.00,VWS V13.00,2013-08-06 02:45:00,
2013-08-05 20:51:00,59.4,54.9,29.84,ESE,102,0.0,0.0,85,0.00,,---,0.00,VWS V13.00,2013-08-06 02:51:00,
2013-08-05 20:56:00,59.0,54.5,29.84,ESE,102,0.0,0.0,85,0.00,,---,0.00,VWS V13.00,2013-08-06 02:56:00,
2013-08-05 21:01:00,59.0,54.8,29.84,ESE,102,0.0,1.0,86,0.00,,---,0.00,VWS V13.00,2013-08-06 03:01:00,
2013-08-05 21:07:00,58.9,54.7,29.83,ESE,102,0.0,0.0,86,0.00,,---,0.00,VWS V13.00,2013-08-06 03:07:00,
2013-08-05 21:12:00,58.6,54.4,29.83,ESE,102,0.0,0.0,86,0.00,,---,0.00,VWS V13.00,2013-08-06 03:12:00,
2013-08-05 21:17:00,58.4,54.5,29.83,ESE,102,0.0,1.0,87,0.00,,---,0.00,VWS V13.00,2013-08-06 03:17:00,
2013-08-05 21:22:00,58.2,54.4,29.84,ESE,102,0.0,0.0,87,0.00,,---,0.00,VWS V13.00,2013-08-06 03:22:00,
2013-08-05 21:27:00,58.0,53.8,29.85,ESE,102,0.0,1.0,86,0.00,,---,0.00,VWS V13.00,2013-08-06 03:27:00,
2013-08-05 21:32:00,58.1,53.9,29.85,ESE,102,0.0,0.0,86,0.00,,---,0.00,VWS V13.00,2013-08-06 03:32:00,
2013-08-05 21:37:00,58.3,54.1,29.85,ESE,102,0.0,1.0,86,0.00,,---,0.00,VWS V13.00,2013-08-06 03:37:00,
2013-08-05 21:43:00,58.3,53.8,29.85,ESE,102,0.0,1.0,85,0.00,,---,0.00,VWS V13.00,2013-08-06 03:43:00,
2013-08-05 21:48:00,58.3,53.8,29.86,ESE,102,0.0,0.0,85,0.00,,---,0.00,VWS V13.00,2013-08-06 03:48:00,
2013-08-05 21:53:00,58.6,53.8,29.86,ESE,102,0.0,0.0,84,0.00,,---,0.00,VWS V13.00,2013-08-06 03:53:00,
2013-08-05 21:59:00,59.0,54.2,29.86,ESE,102,0.0,1.0,84,0.00,,---,0.00,VWS V13.00,2013-08-06 03:59:00,
2013-08-05 22:01:00,59.0,53.5,29.86,ESE,102,0.0,1.0,82,0.00,,---,0.00,VWS V13.00,2013-08-06 04:01:00,
2013-08-05 22:06:00,59.1,54.0,29.83,ESE,102,0.0,1.0,83,0.00,,---,0.00,VWS V13.00,2013-08-06 04:06:00,
2013-08-05 22:11:00,59.4,53.9,29.83,ESE,102,0.0,1.0,82,0.00,,---,0.00,VWS V13.00,2013-08-06 04:11:00,
2013-08-05 22:16:00,59.5,54.3,29.83,ESE,102,0.0,1.0,83,0.00,,---,0.00,VWS V13.00,2013-08-06 04:16:00,
2013-08-05 22:21:00,59.6,54.4,29.83,ESE,102,0.0,0.0,83,0.00,,---,0.00,VWS V13.00,2013-08-06 04:21:00,
2013-08-05 22:26:00,59.7,54.5,29.82,ESE,102,0.0,0.0,83,0.00,,---,0.00,VWS V13.00,2013-08-06 04:26:00,
2013-08-05 22:31:00,59.8,55.0,29.81,ESE,102,0.0,0.0,84,0.00,,---,0.00,VWS V13.00,2013-08-06 04:31:00,
2013-08-05 22:36:00,59.9,55.1,29.81,ESE,102,0.0,2.0,84,0.00,,---,0.00,VWS V13.00,2013-08-06 04:36:00,
2013-08-05 22:41:00,59.9,54.7,29.80,ESE,102,0.0,2.0,83,0.00,,---,0.00,VWS V13.00,2013-08-06 04:41:00,
2013-08-05 22:46:00,60.1,54.6,29.80,ESE,102,0.0,2.0,82,0.00,,---,0.00,VWS V13.00,2013-08-06 04:46:00,
2013-08-05 22:51:00,60.4,54.9,29.81,ESE,102,0.0,2.0,82,0.00,,---,0.00,VWS V13.00,2013-08-06 04:51:00,
2013-08-05 22:56:00,60.6,54.4,29.80,South,185,1.0,5.0,80,0.00,,---,0.00,VWS V13.00,2013-08-06 04:56:00,
2013-08-05 23:01:00,61.1,54.9,29.81,South,185,0.0,5.0,80,0.00,,---,0.00,VWS V13.00,2013-08-06 05:01:00,
2013-08-05 23:06:00,61.1,55.2,29.80,South,184,0.0,2.0,81,0.00,,---,0.00,VWS V13.00,2013-08-06 05:06:00,
2013-08-05 23:11:00,61.1,55.9,29.80,South,184,0.0,2.0,83,0.00,,---,0.00,VWS V13.00,2013-08-06 05:11:00,
2013-08-05 23:16:00,60.6,55.8,29.81,South,185,0.0,2.0,84,0.00,,---,0.00,VWS V13.00,2013-08-06 05:16:00,
2013-08-05 23:21:00,60.0,55.8,29.81,South,184,0.0,0.0,86,0.00,,---,0.00,VWS V13.00,2013-08-06 05:21:00,
2013-08-05 23:26:00,59.8,55.9,29.82,South,184,0.0,1.0,87,0.00,,---,0.00,VWS V13.00,2013-08-06 05:26:00,
2013-08-05 23:32:00,59.7,55.8,29.82,South,184,4.0,4.0,87,0.00,,---,0.00,VWS V13.00,2013-08-06 05:32:00,
2013-08-05 23:37:00,60.2,55.7,29.83,SSW,202,3.0,11.0,85,0.00,,---,0.00,VWS V13.00,2013-08-06 05:37:00,
2013-08-05 23:42:00,60.9,55.4,29.84,South,172,0.0,11.0,82,0.00,,---,0.00,VWS V13.00,2013-08-06 05:42:00,
2013-08-05 23:47:00,61.6,56.1,29.82,South,172,0.0,11.0,82,0.00,,---,0.00,VWS V13.00,2013-08-06 05:47:00,
2013-08-05 23:52:00,61.7,56.2,29.85,South,186,2.0,4.0,82,0.00,,---,0.00,VWS V13.00,2013-08-06 05:52:00,
2013-08-05 23:57:00,61.3,56.1,29.84,South,184,3.0,9.0,83,0.00,,---,0.00,VWS V13.00,2013-08-06 05:57:00,